METAR Data

Data at: 0813 UTC 18 Sep 2021

KNKX 180755Z 34005KT 10SM SCT120 17/14 A3003 RMK AO2 SLP164 T01670139 402330167

TAF KNKX 1803/1903 VRB05KT 9999 FEW010 QNH2998INS
  BECMG 1804/1806 VRB05KT 9999 OVC015 QNH3000INS
  BECMG 1816/1818 29008KT 9999 SKC QNH2997INS
  FM190130 VRB05KT 9999 FEW010 QNH2998INS T14/1813Z T24/1820Z